Paxton, Massachusetts
Current Conditions -  °F | °C
As of 7:54 PM on Saturday 25 Oct 2014 (Local Time) from KORH Reporting Station
Few Clouds Few Clouds  
Wind Chill: 45°   Ceiling: Unl
Heat Index: 49°   Visibility: 10mi
Dew Point: 43°   Wind: 8mph
Humidity: 80%   Direction: 220°SW
Pressure: 29.59"   Gusts: NA
Location:  42.31°N, 71.93°W
Report Text: KORH 252354Z 22007KT 10SM FEW065 FEW095 09/06 A2959 RMK AO2 SLP026 T00940061 10156 20094 58005
Loading
Personal Weather Stations






























Interactive Weather Map
Tropical Storm Tracking
New forecast layout! Learn more

10-Day Weather Forecast

Advertisements
Track Severe Weather on mobile